Time;durP1;ratioP1;P1;durP2;ratioP2;P2;SDS_P1;SDS_P2;PMS_P1;PMS_P2;Temp;Humidity;BMP_temperature;BMP_pressure;BME280_temperature;BME280_humidity;BME280_pressure;Samples;Min_cycle;Max_cycle;Signal;HPM_P1;HPM_P2
2023/10/18 00:00:59;;;;;;;32.87;16.17;;;6.30;85.20;;;;;;4991203;28;20441;-71
2023/10/18 00:03:29;;;;;;;31.33;15.50;;;6.30;85.30;;;;;;5001874;23;20501;-71
2023/10/18 00:05:55;;;;;;;29.73;16.03;;;6.30;85.30;;;;;;4984384;28;20469;-71
2023/10/18 00:08:22;;;;;;;30.63;16.63;;;6.20;85.30;;;;;;4993737;28;20429;-71
2023/10/18 00:10:50;;;;;;;30.53;16.53;;;6.10;85.60;;;;;;5000260;28;20895;-71
2023/10/18 00:13:16;;;;;;;29.77;14.87;;;6.10;85.70;;;;;;4997168;28;20462;-71
2023/10/18 00:15:42;;;;;;;31.67;16.87;;;6.10;85.70;;;;;;5005211;28;20543;-72
2023/10/18 00:18:11;;;;;;;30.93;15.90;;;6.20;86.00;;;;;;4997437;28;20182;-71
2023/10/18 00:20:36;;;;;;;22.93;13.10;;;6.10;85.90;;;;;;4998226;28;20594;-72
2023/10/18 00:23:03;;;;;;;24.80;13.73;;;6.30;85.90;;;;;;4996067;28;20437;-70
2023/10/18 00:25:28;;;;;;;28.20;14.80;;;6.30;85.60;;;;;;4995928;28;20298;-71
2023/10/18 00:27:54;;;;;;;31.70;16.27;;;6.20;85.50;;;;;;4998491;28;20512;-71
2023/10/18 00:30:21;;;;;;;31.87;14.63;;;6.20;85.60;;;;;;4999626;28;20220;-71
2023/10/18 00:32:47;;;;;;;34.63;16.90;;;6.20;85.70;;;;;;4992948;28;20186;-71
2023/10/18 00:35:16;;;;;;;27.33;14.87;;;6.10;85.70;;;;;;4995062;28;20486;-76
2023/10/18 00:37:43;;;;;;;31.07;16.10;;;6.10;85.70;;;;;;4993747;28;20508;-72
2023/10/18 00:42:53;;;;;;;31.33;16.20;;;6.00;86.20;;;;;;4998588;28;20432;-71
2023/10/18 00:45:21;;;;;;;30.67;17.03;;;6.00;86.50;;;;;;4994550;28;20465;-71
2023/10/18 00:47:48;;;;;;;34.03;17.10;;;5.90;86.30;;;;;;4992641;28;20189;-72
2023/10/18 00:50:15;;;;;;;25.90;15.10;;;5.90;86.50;;;;;;4998446;28;20563;-72
2023/10/18 00:52:41;;;;;;;31.83;16.20;;;5.80;86.30;;;;;;4997149;28;21686;-72
2023/10/18 00:55:09;;;;;;;27.03;15.00;;;5.80;86.50;;;;;;4998154;28;21224;-72
2023/10/18 00:57:36;;;;;;;34.13;16.83;;;5.80;86.60;;;;;;5003255;28;20644;-71
2023/10/18 01:00:08;;;;;;;33.10;17.20;;;5.80;86.60;;;;;;4998857;28;20454;-72
2023/10/18 01:02:39;;;;;;;26.87;14.53;;;5.70;86.80;;;;;;5002972;28;20507;-71
2023/10/18 01:05:09;;;;;;;38.40;17.37;;;5.80;86.80;;;;;;4995829;28;20453;-73
2023/10/18 01:07:35;;;;;;;32.10;17.97;;;5.80;86.80;;;;;;4993298;28;20452;-71
2023/10/18 01:10:07;;;;;;;30.57;16.83;;;5.70;86.80;;;;;;4994381;28;20860;-72
2023/10/18 01:12:36;;;;;;;33.83;16.80;;;5.70;86.80;;;;;;4995329;28;20186;-71
2023/10/18 01:15:06;;;;;;;33.50;16.03;;;5.70;86.90;;;;;;4992118;28;20814;-71
2023/10/18 01:17:34;;;;;;;30.77;14.50;;;5.80;86.90;;;;;;4991382;28;20479;-70
2023/10/18 01:20:12;;;;;;;31.20;15.40;;;5.90;86.60;;;;;;4994173;28;20460;-72
2023/10/18 01:22:37;;;;;;;29.10;14.43;;;5.80;86.00;;;;;;4995217;28;20585;-72
2023/10/18 01:25:04;;;;;;;24.23;13.80;;;5.70;85.90;;;;;;4992038;28;20566;-71
2023/10/18 01:27:29;;;;;;;28.77;14.80;;;5.70;86.00;;;;;;4991669;28;20281;-71
2023/10/18 01:29:55;;;;;;;29.47;14.47;;;5.80;86.20;;;;;;4993354;28;20899;-72
2023/10/18 01:32:21;;;;;;;28.03;15.20;;;5.80;86.20;;;;;;4993471;28;20193;-72
2023/10/18 01:34:47;;;;;;;26.13;14.87;;;5.80;86.20;;;;;;4993038;28;20503;-72
2023/10/18 01:37:14;;;;;;;35.80;15.87;;;5.80;86.20;;;;;;4990581;28;20217;-72
2023/10/18 01:39:40;;;;;;;26.30;15.47;;;5.80;86.30;;;;;;4994151;28;20240;-71
2023/10/18 01:42:06;;;;;;;34.40;16.80;;;5.80;86.00;;;;;;4992449;28;20417;-72
2023/10/18 01:44:35;;;;;;;32.57;15.07;;;5.70;86.00;;;;;;4993237;28;20265;-71
2023/10/18 01:47:12;;;;;;;26.07;14.17;;;5.70;86.20;;;;;;4985398;28;20997;-70
2023/10/18 01:49:44;;;;;;;25.40;14.80;;;5.80;86.50;;;;;;4992856;28;20441;-70
2023/10/18 01:52:17;;;;;;;28.80;15.53;;;5.80;86.00;;;;;;4992987;28;20430;-71
2023/10/18 01:54:43;;;;;;;27.80;14.43;;;5.80;86.00;;;;;;4994008;28;20465;-72
2023/10/18 01:57:11;;;;;;;31.83;14.73;;;5.90;86.20;;;;;;4985462;28;20464;-70
2023/10/18 01:59:37;;;;;;;37.43;16.20;;;5.90;86.00;;;;;;4992554;28;20201;-72
2023/10/18 02:02:12;;;;;;;33.40;17.20;;;5.80;85.60;;;;;;4995317;28;20426;-70
2023/10/18 02:04:40;;;;;;;39.20;17.80;;;5.70;85.70;;;;;;4991261;28;20232;-71
2023/10/18 02:07:09;;;;;;;34.43;17.30;;;5.70;86.00;;;;;;4989309;28;20515;-71
2023/10/18 02:09:36;;;;;;;35.50;17.37;;;5.70;86.20;;;;;;4992946;28;20421;-71
2023/10/18 02:12:06;;;;;;;35.30;16.30;;;5.70;86.50;;;;;;4992349;28;20426;-73
2023/10/18 02:14:33;;;;;;;43.93;20.13;;;5.70;86.80;;;;;;4992436;28;20469;-71
2023/10/18 02:16:59;;;;;;;29.23;15.63;;;5.70;86.80;;;;;;4986310;28;20548;-71
2023/10/18 02:19:27;;;;;;;40.20;18.60;;;5.70;86.90;;;;;;4992682;28;20429;-71
2023/10/18 02:21:53;;;;;;;34.37;16.43;;;5.80;86.90;;;;;;4992517;28;20472;-71
2023/10/18 02:24:19;;;;;;;27.10;15.70;;;5.80;86.60;;;;;;4993035;28;20467;-71
2023/10/18 02:26:53;;;;;;;31.83;16.10;;;5.80;86.50;;;;;;4990978;28;20548;-72
2023/10/18 02:29:22;;;;;;;32.57;16.73;;;5.80;86.30;;;;;;4994464;28;20194;-71
2023/10/18 02:31:52;;;;;;;40.53;18.73;;;5.70;86.20;;;;;;4990980;28;20464;-70
2023/10/18 02:34:20;;;;;;;29.63;15.57;;;5.70;86.60;;;;;;4992870;28;20477;-71
2023/10/18 02:36:49;;;;;;;29.20;15.97;;;5.70;86.90;;;;;;4989900;28;20514;-71
2023/10/18 02:39:24;;;;;;;35.47;15.97;;;5.80;86.80;;;;;;4997706;28;20224;-71
2023/10/18 02:41:51;;;;;;;34.33;16.97;;;5.70;86.60;;;;;;4999639;28;20451;-71
2023/10/18 02:44:23;;;;;;;43.17;20.00;;;5.60;86.50;;;;;;4996883;28;20504;-71
2023/10/18 02:49:37;;;;;;;34.43;16.90;;;5.60;86.80;;;;;;4998579;28;20429;-70
2023/10/18 02:52:05;;;;;;;35.47;16.73;;;5.70;87.10;;;;;;4996655;28;20430;-71
2023/10/18 02:54:32;;;;;;;41.33;19.27;;;5.90;87.10;;;;;;4999366;28;20218;-71
2023/10/18 02:56:59;;;;;;;38.60;18.37;;;6.00;87.10;;;;;;4992330;28;20468;-71
2023/10/18 02:59:25;;;;;;;36.57;18.10;;;6.00;87.00;;;;;;4997701;28;20426;-72
2023/10/18 03:01:54;;;;;;;31.83;17.23;;;6.00;87.00;;;;;;4995795;28;20802;-71
2023/10/18 03:04:22;;;;;;;32.43;18.73;;;6.10;86.90;;;;;;4997239;28;21193;-71
2023/10/18 03:06:50;;;;;;;33.50;17.33;;;6.10;86.80;;;;;;4989519;28;20457;-70
2023/10/18 03:09:38;;;;;;;31.93;16.73;;;6.00;86.60;;;;;;4999742;28;20844;-70
2023/10/18 03:12:13;;;;;;;36.03;17.83;;;6.10;86.80;;;;;;4993553;28;20950;-71
2023/10/18 03:14:39;;;;;;;30.93;16.53;;;6.20;86.80;;;;;;4997110;28;20465;-72
2023/10/18 03:19:56;;;;;;;28.53;16.00;;;6.30;86.30;;;;;;4995620;28;20421;-72
2023/10/18 03:22:31;;;;;;;27.57;15.53;;;6.30;86.00;;;;;;5001861;28;20445;-71
2023/10/18 03:24:59;;;;;;;34.87;17.60;;;6.40;85.90;;;;;;4994788;28;20429;-72
2023/10/18 03:27:29;;;;;;;36.40;18.93;;;6.30;85.60;;;;;;4995627;28;20476;-72
2023/10/18 03:29:58;;;;;;;32.23;17.13;;;6.10;85.60;;;;;;4997991;28;20433;-71
2023/10/18 03:32:24;;;;;;;40.73;19.87;;;6.00;85.70;;;;;;5004724;28;20416;-71
2023/10/18 03:34:52;;;;;;;37.87;17.77;;;6.00;85.90;;;;;;4993876;28;20556;-70
2023/10/18 03:37:21;;;;;;;32.97;15.83;;;6.00;86.00;;;;;;4992647;28;21142;-73
2023/10/18 03:39:52;;;;;;;33.60;16.10;;;6.00;86.20;;;;;;4991831;28;20483;-73
2023/10/18 03:42:37;;;;;;;42.27;19.53;;;6.10;86.30;;;;;;5000951;28;20448;-71
2023/10/18 03:45:20;;;;;;;34.93;18.57;;;6.10;86.20;;;;;;4992587;28;20426;-71
2023/10/18 03:47:57;;;;;;;36.13;18.90;;;6.00;86.00;;;;;;4994024;28;20786;-72
2023/10/18 03:50:29;;;;;;;36.43;18.77;;;5.90;86.00;;;;;;4994076;28;20416;-72
2023/10/18 03:52:55;;;;;;;33.50;17.47;;;6.00;86.20;;;;;;4994127;28;20481;-71
2023/10/18 03:55:23;;;;;;;32.23;16.10;;;6.00;86.30;;;;;;4994798;28;20569;-72
2023/10/18 03:57:54;;;;;;;41.40;20.57;;;6.00;86.30;;;;;;4998050;28;20186;-73
2023/10/18 04:02:59;;;;;;;38.77;19.70;;;5.90;86.20;;;;;;4995643;28;20445;-72
2023/10/18 04:08:02;;;;;;;32.33;16.10;;;5.90;86.30;;;;;;4996427;28;20967;-72
2023/10/18 04:10:28;;;;;;;38.20;18.70;;;6.00;86.50;;;;;;4995748;28;20421;-75
2023/10/18 04:12:56;;;;;;;37.33;19.37;;;5.90;86.30;;;;;;4993548;28;20418;-75
2023/10/18 04:15:23;;;;;;;40.83;19.90;;;6.00;86.50;;;;;;4992289;28;20489;-74
2023/10/18 04:20:33;;;;;;;38.07;19.00;;;6.00;86.20;;;;;;4995490;28;20416;-73
2023/10/18 04:23:00;;;;;;;41.03;18.47;;;6.00;86.20;;;;;;4998685;28;20501;-71
2023/10/18 04:25:29;;;;;;;41.20;17.90;;;5.90;86.20;;;;;;4994146;28;20218;-71
2023/10/18 04:27:59;;;;;;;43.83;20.77;;;6.00;86.30;;;;;;4995469;28;20430;-71
2023/10/18 04:30:25;;;;;;;38.63;19.63;;;6.00;86.30;;;;;;4996265;28;20484;-73
2023/10/18 04:32:59;;;;;;;36.27;17.20;;;5.80;86.20;;;;;;4996080;28;20501;-72
2023/10/18 04:35:29;;;;;;;36.83;18.40;;;5.80;86.30;;;;;;4990257;28;21088;-71
2023/10/18 04:37:57;;;;;;;31.93;16.90;;;5.70;86.60;;;;;;5000641;28;20418;-71
2023/10/18 04:40:25;;;;;;;34.20;16.37;;;5.80;86.60;;;;;;4993355;28;20946;-72
2023/10/18 04:42:51;;;;;;;38.03;17.37;;;6.00;86.80;;;;;;4999561;28;20437;-71
2023/10/18 04:45:18;;;;;;;35.10;17.80;;;6.00;86.50;;;;;;4988481;28;20457;-70
2023/10/18 04:47:49;;;;;;;34.93;16.03;;;6.00;86.30;;;;;;4996774;28;20501;-70
2023/10/18 04:50:18;;;;;;;31.40;17.33;;;6.10;86.20;;;;;;4992260;28;20409;-70
2023/10/18 04:52:47;;;;;;;30.40;16.33;;;6.00;85.60;;;;;;4994846;28;20437;-70
2023/10/18 04:55:16;;;;;;;31.07;17.07;;;5.90;85.60;;;;;;4990885;28;20477;-70
2023/10/18 04:57:42;;;;;;;32.07;16.90;;;5.80;85.70;;;;;;4995913;28;20434;-71
2023/10/18 05:02:58;;;;;;;38.07;18.47;;;5.70;86.00;;;;;;4976493;28;20405;-70
2023/10/18 05:05:27;;;;;;;30.57;16.43;;;5.60;86.50;;;;;;4992471;28;20557;-70
2023/10/18 05:07:54;;;;;;;35.27;19.93;;;5.60;86.60;;;;;;4995398;28;20433;-71
2023/10/18 05:10:21;;;;;;;46.00;21.40;;;5.60;86.90;;;;;;5000333;28;20925;-71
2023/10/18 05:12:53;;;;;;;41.00;20.47;;;5.50;86.90;;;;;;4995534;28;20437;-71
2023/10/18 05:15:28;;;;;;;40.23;19.57;;;5.60;87.00;;;;;;4987659;28;20485;-72
2023/10/18 05:18:04;;;;;;;37.03;18.07;;;5.70;87.30;;;;;;4995032;28;20425;-72
2023/10/18 05:20:46;;;;;;;37.80;19.17;;;5.80;86.90;;;;;;5001971;28;21058;-71
2023/10/18 05:23:22;;;;;;;35.63;17.43;;;5.70;86.90;;;;;;4994715;28;20512;-72
2023/10/18 05:25:48;;;;;;;44.30;19.20;;;5.70;86.90;;;;;;4989969;28;20461;-70
2023/10/18 05:28:17;;;;;;;37.30;18.10;;;5.70;87.10;;;;;;4994520;28;20867;-71
2023/10/18 05:38:48;;;;;;;36.10;17.60;;;5.80;86.00;;;;;;5000929;28;20438;-72
2023/10/18 05:42:03;;;;;;;41.10;20.20;;;5.70;85.90;;;;;;4997833;28;20429;-73
2023/10/18 05:44:06;;;;;;;37.30;19.17;;;5.60;86.00;;;;;;4997114;28;20483;-71
2023/10/18 05:46:32;;;;;;;44.67;19.77;;;5.60;86.20;;;;;;4992177;28;20469;-71
2023/10/18 05:49:00;;;;;;;37.73;18.90;;;5.50;86.50;;;;;;4999236;28;20445;-72
2023/10/18 05:51:27;;;;;;;37.37;19.10;;;5.60;86.60;;;;;;5000722;28;20440;-71
2023/10/18 05:53:57;;;;;;;41.57;20.00;;;5.60;86.60;;;;;;5003887;28;20426;-71
2023/10/18 05:56:29;;;;;;;39.67;20.00;;;5.60;86.60;;;;;;4989014;28;20497;-72
2023/10/18 06:01:53;;;;;;;37.97;18.90;;;5.70;86.20;;;;;;4995034;28;20433;-71
2023/10/18 06:04:25;;;;;;;40.10;19.30;;;5.60;86.20;;;;;;5000238;28;20511;-71
2023/10/18 06:06:51;;;;;;;37.60;18.23;;;5.60;86.50;;;;;;4994427;28;20512;-71
2023/10/18 06:09:32;;;;;;;43.73;21.77;;;5.60;86.60;;;;;;4997688;28;20804;-71
2023/10/18 06:12:00;;;;;;;43.10;21.23;;;5.60;86.80;;;;;;5003717;28;20504;-71
2023/10/18 06:14:39;;;;;;;36.80;19.63;;;5.70;86.90;;;;;;4993222;28;20469;-72
2023/10/18 06:17:19;;;;;;;40.37;21.27;;;5.80;86.90;;;;;;4995573;28;20511;-71
2023/10/18 06:19:45;;;;;;;46.67;21.93;;;5.80;86.90;;;;;;4997298;28;20427;-71
2023/10/18 06:22:28;;;;;;;41.27;19.97;;;5.80;86.80;;;;;;5001501;28;20413;-71
2023/10/18 06:24:57;;;;;;;44.10;19.60;;;5.80;86.80;;;;;;5000212;28;20549;-72
2023/10/18 06:27:23;;;;;;;47.37;19.10;;;6.00;86.90;;;;;;4993869;28;20552;-71
2023/10/18 06:29:54;;;;;;;43.93;20.43;;;6.10;86.80;;;;;;4999550;28;20438;-72
2023/10/18 06:32:25;;;;;;;43.13;20.10;;;6.20;86.60;;;;;;4992665;28;20421;-72
2023/10/18 06:34:56;;;;;;;37.20;18.53;;;6.30;86.50;;;;;;5000201;28;20477;-72
2023/10/18 06:37:40;;;;;;;33.00;16.67;;;6.40;86.50;;;;;;4993373;28;20438;-70
2023/10/18 06:40:40;;;;;;;38.13;18.53;;;6.50;86.30;;;;;;5000738;28;20416;-71
2023/10/18 06:43:06;;;;;;;38.20;19.80;;;6.70;86.20;;;;;;4996641;28;21550;-71
2023/10/18 06:45:36;;;;;;;32.27;16.37;;;6.70;85.60;;;;;;4998670;28;20466;-71
2023/10/18 06:48:03;;;;;;;36.97;16.23;;;6.80;85.30;;;;;;5001426;28;20425;-71
2023/10/18 06:50:29;;;;;;;38.50;18.80;;;6.90;84.70;;;;;;5001184;28;21147;-71
2023/10/18 06:52:55;;;;;;;37.53;18.30;;;6.90;84.40;;;;;;5000514;28;20966;-71
2023/10/18 06:58:53;;;;;;;45.17;19.80;;;7.00;84.00;;;;;;5000137;28;20451;-71
2023/10/18 07:00:53;;;;;;;44.57;20.07;;;7.00;84.00;;;;;;4985270;28;20417;-72
2023/10/18 07:03:27;;;;;;;35.00;17.90;;;7.10;83.40;;;;;;5000498;28;20448;-71
2023/10/18 07:05:54;;;;;;;36.17;19.97;;;7.20;83.40;;;;;;4990186;28;20237;-70
2023/10/18 07:08:20;;;;;;;40.50;18.00;;;7.30;83.10;;;;;;5003801;28;20425;-72
2023/10/18 07:10:55;;;;;;;39.13;19.17;;;7.30;82.70;;;;;;4991983;28;20426;-72
2023/10/18 07:13:34;;;;;;;32.60;17.87;;;7.40;82.20;;;;;;4995758;28;20436;-72
2023/10/18 07:16:12;;;;;;;42.40;18.63;;;7.40;82.10;;;;;;4991249;28;21059;-73
2023/10/18 07:18:44;;;;;;;40.40;20.10;;;7.50;82.10;;;;;;4997054;28;20440;-71
2023/10/18 07:21:11;;;;;;;40.57;19.13;;;7.60;81.90;;;;;;4998644;28;20440;-72
2023/10/18 07:23:37;;;;;;;46.83;19.03;;;7.70;81.80;;;;;;4999406;28;20410;-72
2023/10/18 07:26:13;;;;;;;49.07;20.00;;;7.70;81.50;;;;;;4992462;28;20981;-71
2023/10/18 07:28:40;;;;;;;41.00;19.90;;;7.70;81.40;;;;;;4998268;28;20513;-70
2023/10/18 07:31:10;;;;;;;42.63;17.00;;;7.80;81.50;;;;;;4998677;28;20417;-71
2023/10/18 07:33:42;;;;;;;39.70;18.17;;;7.80;81.10;;;;;;4995905;28;20797;-72
2023/10/18 07:36:09;;;;;;;38.67;19.03;;;7.80;81.10;;;;;;4996515;28;20523;-71
2023/10/18 07:38:47;;;;;;;39.80;18.60;;;7.80;81.40;;;;;;4994117;28;20448;-71
2023/10/18 07:41:13;;;;;;;35.10;17.50;;;7.90;81.20;;;;;;5004773;28;20424;-72
2023/10/18 07:43:41;;;;;;;33.00;17.73;;;7.90;81.20;;;;;;4993012;28;20777;-70
2023/10/18 07:46:10;;;;;;;38.03;18.00;;;8.00;80.80;;;;;;4997094;28;20481;-71
2023/10/18 07:48:45;;;;;;;34.60;18.53;;;8.00;80.30;;;;;;4988833;28;20418;-71
2023/10/18 07:51:24;;;;;;;34.30;17.47;;;8.00;80.30;;;;;;4999249;28;20432;-71
2023/10/18 07:53:54;;;;;;;34.90;18.70;;;8.00;80.20;;;;;;4998139;28;20847;-71
2023/10/18 07:56:27;;;;;;;35.30;16.83;;;8.00;79.70;;;;;;4988676;28;21048;-71
2023/10/18 07:58:53;;;;;;;37.50;19.00;;;8.10;79.90;;;;;;4998352;28;20425;-71
2023/10/18 08:04:04;;;;;;;35.03;17.40;;;8.20;79.50;;;;;;5003957;28;20480;-72
2023/10/18 08:06:33;;;;;;;36.70;18.63;;;8.20;79.30;;;;;;4988374;28;20837;-72
2023/10/18 08:09:03;;;;;;;45.47;19.97;;;8.20;79.30;;;;;;4999371;28;20426;-72
2023/10/18 08:11:32;;;;;;;34.87;18.57;;;8.20;79.30;;;;;;4992484;28;20418;-73
2023/10/18 08:13:58;;;;;;;35.97;17.90;;;8.30;79.60;;;;;;4998562;28;20444;-71
2023/10/18 08:16:27;;;;;;;39.87;19.90;;;8.40;79.50;;;;;;4989996;28;20484;-71
2023/10/18 08:18:53;;;;;;;35.53;18.37;;;8.20;79.70;;;;;;4997818;28;20426;-72
2023/10/18 08:21:37;;;;;;;39.40;20.07;;;8.30;80.00;;;;;;4998118;28;20421;-72
2023/10/18 08:24:08;;;;;;;38.67;18.83;;;8.40;79.60;;;;;;4995682;28;20916;-71
2023/10/18 08:26:46;;;;;;;42.37;20.13;;;8.60;79.60;;;;;;4990461;28;20481;-72
2023/10/18 08:29:13;;;;;;;36.20;18.33;;;8.70;79.50;;;;;;4990792;28;20463;-71
2023/10/18 08:31:39;;;;;;;46.33;20.03;;;8.90;79.00;;;;;;4995620;28;20421;-72
2023/10/18 08:34:05;;;;;;;37.83;18.97;;;8.90;78.40;;;;;;4998420;28;20418;-71
2023/10/18 08:36:34;;;;;;;32.37;18.50;;;9.00;77.40;;;;;;4990572;28;20230;-71
2023/10/18 08:39:04;;;;;;;40.37;18.63;;;8.90;77.30;;;;;;4995977;28;20422;-71
2023/10/18 08:41:34;;;;;;;37.30;18.53;;;9.00;77.40;;;;;;4998813;28;20481;-72
2023/10/18 08:44:18;;;;;;;34.73;18.37;;;9.20;76.80;;;;;;4992653;28;20776;-72
2023/10/18 08:49:32;;;;;;;33.67;19.00;;;9.30;76.50;;;;;;4995183;28;20432;-70
2023/10/18 08:52:08;;;;;;;33.03;17.43;;;9.50;76.40;;;;;;4997591;28;20510;-72
2023/10/18 08:54:36;;;;;;;37.83;17.90;;;9.60;76.10;;;;;;4991898;28;20582;-70
2023/10/18 08:57:09;;;;;;;33.57;18.20;;;9.70;75.80;;;;;;4990618;28;20493;-73
2023/10/18 08:59:50;;;;;;;37.63;18.60;;;9.80;75.50;;;;;;4994261;28;20472;-73
2023/10/18 09:02:18;;;;;;;37.53;19.03;;;9.90;75.10;;;;;;4993580;28;20488;-72
2023/10/18 09:04:52;;;;;;;34.03;18.00;;;10.10;74.30;;;;;;4993297;28;20517;-73
2023/10/18 09:07:21;;;;;;;34.77;18.77;;;10.20;73.70;;;;;;4990725;28;20906;-71
2023/10/18 09:09:54;;;;;;;36.13;20.20;;;10.20;73.70;;;;;;4997662;28;20429;-74
2023/10/18 09:15:34;;;;;;;32.50;17.80;;;10.40;73.20;;;;;;4976257;28;20935;-72
2023/10/18 09:18:05;;;;;;;34.10;17.57;;;10.50;73.20;;;;;;4995756;28;20433;-72
2023/10/18 09:20:37;;;;;;;33.43;16.10;;;10.50;73.00;;;;;;5002196;28;20497;-71
2023/10/18 09:23:03;;;;;;;29.50;16.30;;;10.70;72.60;;;;;;4997266;28;20937;-71
2023/10/18 09:25:48;;;;;;;30.30;17.90;;;10.80;72.10;;;;;;4995727;28;20465;-72
2023/10/18 09:28:30;;;;;;;37.10;17.50;;;10.90;72.00;;;;;;5003156;28;20471;-72
2023/10/18 09:31:02;;;;;;;31.77;18.17;;;10.80;71.80;;;;;;4994816;28;20440;-72
2023/10/18 09:33:32;;;;;;;33.07;18.90;;;10.80;72.00;;;;;;5001478;28;20437;-71
2023/10/18 09:36:02;;;;;;;35.17;17.80;;;10.70;72.00;;;;;;4991700;28;21097;-71
2023/10/18 09:38:41;;;;;;;34.17;18.27;;;10.70;72.30;;;;;;5003560;28;20441;-72
2023/10/18 09:41:07;;;;;;;35.13;19.70;;;10.70;72.40;;;;;;5000941;28;20425;-72
2023/10/18 09:43:33;;;;;;;37.67;19.13;;;10.70;72.30;;;;;;5000918;28;20426;-73
2023/10/18 09:45:59;;;;;;;38.10;18.30;;;10.70;72.30;;;;;;4995489;28;20629;-71
2023/10/18 09:48:32;;;;;;;37.10;20.30;;;10.70;72.30;;;;;;5003967;28;20423;-71
2023/10/18 09:51:06;;;;;;;36.53;18.70;;;10.70;72.40;;;;;;5009499;28;20205;-71
2023/10/18 09:53:43;;;;;;;37.97;17.80;;;10.80;72.30;;;;;;4999537;28;20471;-72
2023/10/18 09:56:13;;;;;;;34.10;18.00;;;10.90;72.00;;;;;;4992606;28;20521;-73
2023/10/18 09:58:43;;;;;;;32.50;17.87;;;11.00;71.80;;;;;;4999026;28;20507;-72
2023/10/18 10:01:14;;;;;;;30.87;17.50;;;11.00;71.40;;;;;;4994796;28;20436;-73
2023/10/18 10:03:58;;;;;;;30.27;16.00;;;11.10;71.10;;;;;;4998119;28;20482;-72
2023/10/18 10:06:28;;;;;;;29.43;15.80;;;11.10;70.80;;;;;;4995257;28;20464;-72
2023/10/18 10:08:55;;;;;;;29.83;15.80;;;11.30;70.70;;;;;;4986386;28;20440;-71
2023/10/18 10:11:29;;;;;;;30.90;17.07;;;11.40;71.10;;;;;;5001313;28;20521;-71
2023/10/18 10:14:00;;;;;;;29.67;16.07;;;11.60;70.40;;;;;;4996887;28;20444;-71
2023/10/18 10:16:28;;;;;;;28.93;14.10;;;11.90;69.20;;;;;;4994884;28;20485;-72
2023/10/18 10:18:55;;;;;;;23.90;14.17;;;12.10;68.80;;;;;;4995208;28;21123;-71
2023/10/18 10:21:23;;;;;;;25.23;12.43;;;12.40;68.20;;;;;;5000818;28;20507;-72
2023/10/18 10:23:55;;;;;;;22.60;12.83;;;12.60;67.30;;;;;;4997719;28;21313;-72
2023/10/18 10:26:27;;;;;;;21.57;12.30;;;12.80;66.70;;;;;;4993676;28;20461;-71
2023/10/18 10:31:51;;;;;;;22.10;13.03;;;13.00;66.00;;;;;;4995364;28;20937;-72
2023/10/18 10:34:26;;;;;;;24.33;12.50;;;13.10;66.10;;;;;;4997785;28;20424;-72
2023/10/18 10:37:12;;;;;;;27.00;13.70;;;13.30;65.80;;;;;;4992142;28;20460;-71
2023/10/18 10:39:49;;;;;;;23.00;13.97;;;13.40;65.80;;;;;;4996838;28;20434;-73
2023/10/18 10:42:46;;;;;;;28.13;15.70;;;13.60;65.80;;;;;;4998467;28;20417;-72
2023/10/18 10:45:38;;;;;;;26.07;14.70;;;13.90;65.60;;;;;;4994338;28;20493;-72
2023/10/18 10:48:36;;;;;;;30.43;15.47;;;14.00;65.30;;;;;;4998474;28;20537;-72
2023/10/18 10:51:06;;;;;;;27.10;14.63;;;14.20;65.00;;;;;;4973967;28;20433;-71
2023/10/18 10:54:06;;;;;;;31.17;17.27;;;14.60;65.00;;;;;;4979175;28;20426;-71
2023/10/18 10:56:32;;;;;;;31.87;17.17;;;14.90;64.80;;;;;;4968619;28;20922;-71
2023/10/18 10:59:15;;;;;;;42.07;18.10;;;14.90;64.70;;;;;;4975382;28;20508;-72
2023/10/18 11:01:44;;;;;;;30.77;15.40;;;14.90;64.40;;;;;;4976689;28;20278;-71
2023/10/18 11:04:27;;;;;;;33.73;14.67;;;15.00;64.40;;;;;;4976764;28;20448;-71
2023/10/18 11:06:57;;;;;;;28.30;15.03;;;15.10;64.20;;;;;;4967432;28;20548;-71
2023/10/18 11:09:32;;;;;;;25.80;14.07;;;15.30;64.10;;;;;;4971132;28;20456;-71
2023/10/18 11:12:03;;;;;;;21.13;13.53;;;15.10;63.90;;;;;;4978427;28;20438;-71
2023/10/18 11:14:29;;;;;;;29.73;15.77;;;15.20;64.40;;;;;;4973052;28;20437;-72
2023/10/18 11:17:03;;;;;;;25.17;14.53;;;15.30;63.70;;;;;;4968596;28;20482;-72
2023/10/18 11:19:29;;;;;;;29.23;16.23;;;15.50;63.50;;;;;;4956121;28;20200;-71
2023/10/18 11:21:58;;;;;;;29.87;16.50;;;15.40;63.50;;;;;;4972963;28;20516;-72
2023/10/18 11:24:24;;;;;;;33.37;15.80;;;15.00;64.10;;;;;;4977492;28;20260;-72
2023/10/18 11:26:50;;;;;;;30.43;15.90;;;14.80;64.50;;;;;;4974901;28;20476;-72
2023/10/18 11:29:24;;;;;;;26.20;15.37;;;14.50;65.10;;;;;;5000135;28;20433;-73
2023/10/18 11:31:55;;;;;;;25.70;14.10;;;14.40;65.80;;;;;;5002895;28;20187;-72
2023/10/18 11:34:26;;;;;;;22.93;14.40;;;14.40;65.70;;;;;;4997852;28;20909;-72
2023/10/18 11:37:01;;;;;;;24.87;13.73;;;14.30;65.70;;;;;;4991920;28;20462;-72
2023/10/18 11:39:37;;;;;;;25.70;15.10;;;14.20;66.10;;;;;;4997318;28;20423;-71
2023/10/18 11:42:03;;;;;;;23.57;13.50;;;14.10;66.30;;;;;;4996722;28;20928;-72
2023/10/18 11:44:34;;;;;;;27.80;13.97;;;14.30;66.10;;;;;;5000458;28;20437;-73
2023/10/18 11:47:18;;;;;;;29.47;14.40;;;14.60;66.00;;;;;;4987802;28;20465;-73
2023/10/18 11:49:45;;;;;;;24.50;13.40;;;14.90;65.00;;;;;;5001380;28;20773;-72
2023/10/18 11:52:16;;;;;;;28.03;13.27;;;15.10;64.70;;;;;;4999053;28;20784;-71
2023/10/18 11:54:43;;;;;;;23.97;12.33;;;15.30;63.90;;;;;;4996856;28;20477;-72
2023/10/18 11:57:28;;;;;;;26.50;13.10;;;15.30;63.90;;;;;;4991361;28;20457;-72
2023/10/18 11:59:55;;;;;;;21.50;12.83;;;15.10;64.70;;;;;;4999790;28;20432;-71
2023/10/18 12:02:25;;;;;;;36.97;13.90;;;15.20;64.70;;;;;;4992750;28;20450;-71
2023/10/18 12:04:52;;;;;;;19.07;11.83;;;15.20;65.00;;;;;;4998334;28;20480;-73
2023/10/18 12:07:17;;;;;;;20.97;13.00;;;15.30;64.50;;;;;;4992942;28;20465;-72
2023/10/18 12:09:43;;;;;;;23.67;12.27;;;15.30;64.40;;;;;;4997135;28;20431;-71
2023/10/18 12:12:13;;;;;;;21.17;11.77;;;15.30;64.10;;;;;;4997312;28;20205;-72
2023/10/18 12:14:45;;;;;;;21.20;12.40;;;15.20;63.80;;;;;;4996280;28;20867;-73
2023/10/18 12:17:13;;;;;;;20.47;11.40;;;15.30;64.40;;;;;;4993107;28;20468;-73
2023/10/18 12:19:38;;;;;;;15.83;10.60;;;15.30;64.50;;;;;;4995911;28;20465;-72
2023/10/18 12:22:05;;;;;;;21.87;11.20;;;15.40;64.40;;;;;;5000148;28;20492;-71
2023/10/18 12:24:33;;;;;;;15.83;9.57;;;15.50;63.90;;;;;;4996288;28;20419;-72
2023/10/18 12:29:47;;;;;;;17.90;10.67;;;15.70;63.50;;;;;;4989694;28;20422;-72
2023/10/18 12:32:19;;;;;;;17.80;10.13;;;15.70;63.10;;;;;;5003089;28;20470;-72
2023/10/18 12:34:48;;;;;;;18.73;10.10;;;15.80;62.90;;;;;;4991723;28;20473;-72
2023/10/18 12:37:16;;;;;;;17.97;10.30;;;15.90;62.80;;;;;;4992484;28;20467;-71
2023/10/18 12:39:46;;;;;;;16.80;10.07;;;15.90;62.60;;;;;;4996974;28;20496;-72
2023/10/18 12:42:14;;;;;;;15.70;9.47;;;15.80;62.60;;;;;;5001718;28;20920;-72
2023/10/18 12:44:40;;;;;;;18.33;9.80;;;15.80;62.90;;;;;;4997015;28;20432;-73
2023/10/18 12:47:12;;;;;;;18.77;10.53;;;15.80;62.90;;;;;;4995740;28;20471;-71
2023/10/18 12:49:44;;;;;;;14.50;8.70;;;15.80;63.10;;;;;;4997024;28;20426;-72
2023/10/18 12:52:40;;;;;;;14.10;8.80;;;15.70;63.10;;;;;;5002478;28;20468;-72
2023/10/18 12:54:58;;;;;;;18.43;9.50;;;15.70;63.10;;;;;;5001535;28;20508;-71
2023/10/18 12:57:32;;;;;;;18.63;9.87;;;15.70;63.20;;;;;;4994840;28;20453;-71
2023/10/18 13:05:11;;;;;;;11.13;7.17;;;15.60;63.70;;;;;;5003575;28;20919;-72
2023/10/18 13:07:37;;;;;;;13.20;7.40;;;15.60;63.20;;;;;;4992991;28;20464;-72
2023/10/18 13:10:11;;;;;;;12.77;7.67;;;15.70;63.50;;;;;;5006007;28;20436;-72
2023/10/18 13:12:38;;;;;;;12.90;7.10;;;15.80;62.80;;;;;;4995501;28;20416;-73
2023/10/18 13:15:07;;;;;;;15.43;7.70;;;15.90;62.20;;;;;;5002518;28;20504;-72
2023/10/18 13:17:33;;;;;;;13.30;6.50;;;16.00;62.50;;;;;;4994376;28;20522;-72
2023/10/18 13:19:59;;;;;;;9.20;6.50;;;16.10;62.00;;;;;;5003231;28;20858;-72
2023/10/18 13:22:26;;;;;;;8.27;5.60;;;16.20;61.90;;;;;;5005414;28;20185;-71
2023/10/18 13:24:52;;;;;;;8.20;6.00;;;16.30;61.70;;;;;;4996216;28;20215;-71
2023/10/18 13:27:19;;;;;;;12.70;6.50;;;16.40;61.60;;;;;;4995645;28;20867;-70
2023/10/18 13:30:00;;;;;;;8.13;6.07;;;16.60;61.00;;;;;;4996747;28;20189;-71
2023/10/18 13:32:26;;;;;;;11.87;6.53;;;16.60;60.90;;;;;;4997310;28;20515;-71
2023/10/18 13:34:52;;;;;;;9.70;6.20;;;16.70;60.40;;;;;;4998559;28;20480;-71
2023/10/18 13:37:17;;;;;;;9.30;5.50;;;16.70;60.10;;;;;;4994449;28;20241;-72
2023/10/18 13:39:47;;;;;;;7.40;4.93;;;16.70;60.70;;;;;;4996636;28;20224;-72
2023/10/18 13:42:14;;;;;;;7.40;5.30;;;16.60;61.20;;;;;;5004273;28;20280;-72
2023/10/18 13:44:41;;;;;;;8.60;5.47;;;16.60;60.70;;;;;;4993425;28;20472;-73